Airport Name : Bratsk

Other Name : Bratsk

ICAO : UIBB

IATA : BTK

FAA :

Latitude : 56.370556

Longitude : 101.698331

Country : Russia

Local Date and Time : 10/16/2018 4:10:00 PM

 

TAF (Terminal Aerodrome Forecast)

TAF UIBB 160500Z 1606/1706 07003MPS 9999 SCT015CB

 

METAR (METeorological Aerodrome Report)

UIBB 160800Z 12004MPS 070V180 9999 FEW026 06/01 Q1021 R30/CLRD60 NOSIG RMK QFE723/0964

UIBB 160730Z 11004MPS 070V160 9999 SCT024 07/00 Q1022 R30/60D NOSIG RMK QFE723/0964

UIBB 160700Z 09004MPS 040V130 9999 SCT024 07/00 Q1022 R30/60D NOSIG RMK QFE723/0965

UIBB 160630Z 09004MPS 050V190 9999 SCT024 07/01 Q1022 R30/60D NOSIG RMK QFE723/0965

UIBB 160600Z 10003MPS 050V160 9999 SCT025CB 06/00 Q1023 R30/60D NOSIG RMK QFE724/0965

UIBB 160530Z 06003MPS 030V110 9999 SCT022CB 06/00 Q1024 R30/60D NOSIG RMK QFE724/0966

UIBB 160500Z 07003MPS 030V100 9999 SCT022CB 06/00 Q1024 R30/60D NOSIG RMK QFE725/0966

UIBB 160430Z 11002MPS 050V200 9999 SCT023CB 06/00 Q1025 R30/60D NOSIG RMK QFE725/0967